Аэропорт: Кривой Рог. Кривой Рог

ICAO: UKDR

METAR:
2020-10-24 05:00:00
UKDR 240500Z 00000MPS 0100 R36/0400N FG VV001 08/08 Q1014 R36/19//60 NOSIG
METAR:
2020-10-23 23:04:00
TAF UKDR 232304Z 2400/2424 24003MPS 0300 FG VV002 BECMG 2406/2408 9999 NSW BKN020